Time;durP1;ratioP1;P1;durP2;ratioP2;P2;SDS_P1;SDS_P2;PMS_P1;PMS_P2;Temp;Humidity;BMP_temperature;BMP_pressure;BME280_temperature;BME280_humidity;BME280_pressure;Samples;Min_cycle;Max_cycle;Signal;HPM_P1;HPM_P2
2023/07/07 00:02:24;;;;;;;3.83;2.78;;;;;;;17.37;43.59;95917.00;4993601;28;20195;-81
2023/07/07 00:04:49;;;;;;;4.70;2.60;;;;;;;17.32;43.33;95908.88;4997540;28;20215;-79
2023/07/07 00:07:15;;;;;;;3.97;2.70;;;;;;;17.31;43.66;95911.66;4997635;28;20303;-80
2023/07/07 00:09:40;;;;;;;4.18;2.80;;;;;;;17.26;43.89;95913.03;4990827;28;20273;-81
2023/07/07 00:12:06;;;;;;;5.78;2.75;;;;;;;17.25;43.88;95911.41;4981280;28;20278;-79
2023/07/07 00:14:31;;;;;;;3.75;2.53;;;;;;;17.17;44.15;95910.66;4995989;28;20183;-78
2023/07/07 00:17:01;;;;;;;3.40;2.75;;;;;;;17.10;44.17;95905.31;4997421;28;20617;-80
2023/07/07 00:19:28;;;;;;;5.50;2.83;;;;;;;17.06;44.30;95898.00;4994091;28;20597;-80
2023/07/07 00:21:58;;;;;;;3.58;2.60;;;;;;;17.01;44.61;95897.69;4994372;28;20191;-81
2023/07/07 00:24:25;;;;;;;5.60;2.80;;;;;;;16.99;44.62;95903.94;4982443;28;20285;-79
2023/07/07 00:26:50;;;;;;;4.18;3.00;;;;;;;16.97;44.64;95905.13;4981191;28;20206;-78
2023/07/07 00:29:15;;;;;;;4.40;2.80;;;;;;;16.90;45.03;95899.75;4995831;28;20555;-81
2023/07/07 00:31:40;;;;;;;2.92;2.60;;;;;;;16.86;44.91;95905.53;4997975;28;20186;-81
2023/07/07 00:34:06;;;;;;;5.00;2.60;;;;;;;16.90;44.76;95899.75;5015321;28;20179;-80
2023/07/07 00:36:31;;;;;;;4.30;2.72;;;;;;;16.81;45.44;95905.25;4998226;28;20719;-80
2023/07/07 00:38:56;;;;;;;4.55;2.95;;;;;;;16.76;45.43;95899.72;5013138;28;20187;-81
2023/07/07 00:41:22;;;;;;;6.53;3.35;;;;;;;16.70;45.69;95903.88;4995690;28;20205;-80
2023/07/07 00:44:08;;;;;;;3.13;2.53;;;;;;;16.76;45.44;95897.09;4996889;28;20194;-80
2023/07/07 00:46:35;;;;;;;3.95;3.15;;;;;;;16.74;45.71;95906.97;4997347;28;20706;-79
2023/07/07 00:49:02;;;;;;;5.43;3.25;;;;;;;16.73;45.30;95900.09;4996740;28;20346;-80
2023/07/07 00:51:32;;;;;;;5.43;3.10;;;;;;;16.66;45.66;95899.94;4979321;28;20268;-79
2023/07/07 00:53:58;;;;;;;4.45;2.42;;;;;;;16.66;45.51;95908.63;4997174;28;20183;-80
2023/07/07 00:56:43;;;;;;;4.22;2.80;;;;;;;16.65;45.81;95914.03;4997638;28;20206;-79
2023/07/07 00:59:12;;;;;;;5.70;2.80;;;;;;;16.60;45.93;95908.50;4997679;28;20224;-79
2023/07/07 01:01:38;;;;;;;5.53;3.05;;;;;;;16.55;46.24;95908.22;4996831;28;20179;-80
2023/07/07 01:04:07;;;;;;;3.30;2.70;;;;;;;16.49;46.56;95904.50;4996800;28;20290;-79
2023/07/07 01:06:36;;;;;;;5.18;3.13;;;;;;;16.46;46.78;95907.47;4980459;28;20631;-79
2023/07/07 01:09:08;;;;;;;4.05;2.70;;;;;;;16.35;46.71;95907.88;4980686;28;20676;-79
2023/07/07 01:11:34;;;;;;;5.43;2.95;;;;;;;16.34;47.01;95919.34;4997801;28;20190;-80
2023/07/07 01:14:01;;;;;;;4.40;2.63;;;;;;;16.32;46.74;95911.66;4997059;28;20183;-79
2023/07/07 01:16:31;;;;;;;5.47;2.70;;;;;;;16.30;46.63;95912.81;4980561;28;20211;-79
2023/07/07 01:19:21;;;;;;;4.85;2.70;;;;;;;16.29;46.74;95924.28;5014537;28;20167;-81
2023/07/07 01:22:03;;;;;;;3.97;2.45;;;;;;;16.28;46.88;95920.06;4995002;28;20175;-80
2023/07/07 01:24:57;;;;;;;3.28;2.80;;;;;;;16.26;46.92;95911.56;4995029;28;20591;-79
2023/07/07 01:28:20;;;;;;;3.58;2.60;;;;;;;16.22;46.94;95916.31;4990739;28;20708;-81
2023/07/07 01:30:51;;;;;;;5.50;2.80;;;;;;;16.20;46.91;95920.91;4929173;29;20218;-80
2023/07/07 01:33:18;;;;;;;5.38;2.80;;;;;;;16.21;46.77;95925.16;4989721;28;20270;-80
2023/07/07 01:35:44;;;;;;;3.92;2.72;;;;;;;16.19;46.96;95921.09;5001478;28;20206;-80
2023/07/07 01:38:36;;;;;;;4.45;2.78;;;;;;;16.21;47.25;95916.47;5000731;28;20179;-79
2023/07/07 01:41:16;;;;;;;3.50;2.60;;;;;;;16.17;47.25;95909.94;4991810;28;20688;-80
2023/07/07 01:44:04;;;;;;;4.30;2.85;;;;;;;16.11;46.94;95909.66;4984172;28;20209;-82
2023/07/07 01:46:33;;;;;;;3.53;2.70;;;;;;;16.06;46.90;95911.97;4968784;28;20211;-80
2023/07/07 01:49:26;;;;;;;4.43;2.65;;;;;;;16.07;47.02;95907.53;4977708;28;20294;-79
2023/07/07 01:51:56;;;;;;;4.55;3.50;;;;;;;16.05;47.14;95901.66;4997508;28;20191;-79
2023/07/07 01:54:21;;;;;;;3.42;2.70;;;;;;;16.00;47.74;95904.00;5017063;28;20262;-80
2023/07/07 01:56:47;;;;;;;5.57;3.53;;;;;;;16.00;47.41;95901.38;5000269;28;20203;-80
2023/07/07 01:59:14;;;;;;;3.05;2.72;;;;;;;15.98;47.20;95905.97;4983934;28;20575;-80
2023/07/07 02:01:39;;;;;;;3.13;2.70;;;;;;;15.94;47.92;95908.13;4983983;28;20194;-80
2023/07/07 02:04:04;;;;;;;4.53;3.35;;;;;;;15.90;47.90;95901.56;4983688;28;20179;-81
2023/07/07 02:06:30;;;;;;;6.47;3.22;;;;;;;15.88;47.72;95906.19;5017487;28;20576;-83
2023/07/07 02:08:55;;;;;;;3.40;2.90;;;;;;;15.88;47.49;95902.75;5000470;28;20233;-81
2023/07/07 02:11:20;;;;;;;3.65;2.92;;;;;;;15.84;47.64;95907.53;5000026;28;20239;-82
2023/07/07 02:13:46;;;;;;;3.72;2.85;;;;;;;15.88;47.13;95903.56;4999935;28;20192;-81
2023/07/07 02:16:11;;;;;;;8.10;3.22;;;;;;;15.83;47.45;95900.66;5000650;28;20230;-80
2023/07/07 02:18:37;;;;;;;4.43;3.00;;;;;;;15.82;47.66;95899.84;5000303;28;20175;-79
2023/07/07 02:21:04;;;;;;;3.67;2.97;;;;;;;15.82;47.54;95901.66;5000476;28;20206;-80
2023/07/07 02:23:30;;;;;;;5.10;2.92;;;;;;;15.79;47.55;95896.72;4998403;28;20183;-78
2023/07/07 02:25:55;;;;;;;3.58;3.00;;;;;;;15.73;47.41;95895.63;4993956;28;20237;-83
2023/07/07 02:28:20;;;;;;;6.15;2.38;;;;;;;15.76;47.65;95900.50;4983858;28;20203;-79
2023/07/07 02:30:46;;;;;;;5.47;2.90;;;;;;;15.76;47.43;95897.09;5017810;28;20214;-82
2023/07/07 02:33:11;;;;;;;4.78;3.08;;;;;;;15.77;47.26;95907.38;4999531;28;20206;-80
2023/07/07 02:35:36;;;;;;;4.50;2.70;;;;;;;15.74;47.34;95899.06;4997277;28;20210;-82
2023/07/07 02:38:01;;;;;;;4.97;3.00;;;;;;;15.72;47.14;95901.81;4992436;28;20183;-78
2023/07/07 02:40:27;;;;;;;3.35;2.55;;;;;;;15.70;47.31;95901.19;5017000;28;20190;-81
2023/07/07 02:42:52;;;;;;;4.75;3.00;;;;;;;15.70;47.09;95895.94;4978087;28;20230;-79
2023/07/07 02:45:18;;;;;;;4.25;2.67;;;;;;;15.75;46.79;95898.06;4995856;28;20198;-80
2023/07/07 02:47:43;;;;;;;4.55;2.88;;;;;;;15.77;46.68;95901.34;5000193;28;20608;-79
2023/07/07 02:50:08;;;;;;;2.97;2.53;;;;;;;15.80;46.59;95895.75;4996519;28;20607;-80
2023/07/07 02:52:34;;;;;;;3.80;2.88;;;;;;;15.82;46.54;95899.03;5011353;28;20187;-79
2023/07/07 02:54:59;;;;;;;5.75;3.25;;;;;;;15.84;46.58;95902.28;4982469;28;20326;-80
2023/07/07 02:57:24;;;;;;;6.95;3.08;;;;;;;15.81;46.87;95897.38;4999368;28;20206;-78
2023/07/07 02:59:50;;;;;;;4.38;2.88;;;;;;;15.76;46.70;95899.69;5017741;28;20199;-80
2023/07/07 03:02:15;;;;;;;6.20;2.72;;;;;;;15.80;46.56;95896.56;4983591;28;20195;-82
2023/07/07 03:04:40;;;;;;;5.65;2.78;;;;;;;15.76;46.74;95894.47;4999106;28;20194;-80
2023/07/07 03:07:06;;;;;;;3.70;2.47;;;;;;;15.75;46.68;95898.06;4982944;28;20195;-82
2023/07/07 03:09:31;;;;;;;5.47;2.83;;;;;;;15.74;46.93;95896.44;4999336;28;20210;-81
2023/07/07 03:11:56;;;;;;;4.85;2.95;;;;;;;15.67;47.10;95901.53;4983203;28;20191;-81
2023/07/07 03:14:22;;;;;;;3.60;2.85;;;;;;;15.65;47.39;95903.53;4998421;28;20273;-80
2023/07/07 03:16:51;;;;;;;4.95;2.65;;;;;;;15.67;47.30;95895.50;4983400;28;20214;-81
2023/07/07 03:19:16;;;;;;;6.85;2.50;;;;;;;15.60;47.42;95900.56;4999223;28;20183;-81
2023/07/07 03:21:42;;;;;;;4.72;3.25;;;;;;;15.54;47.73;95902.03;4999071;28;20187;-80
2023/07/07 03:24:08;;;;;;;5.05;2.70;;;;;;;15.53;47.47;95900.41;4998276;28;20676;-80
2023/07/07 03:26:33;;;;;;;5.40;2.92;;;;;;;15.48;48.04;95905.34;4997435;28;20211;-79
2023/07/07 03:28:58;;;;;;;4.03;3.22;;;;;;;15.50;47.94;95906.00;4998814;28;20215;-79
2023/07/07 03:31:26;;;;;;;4.68;2.95;;;;;;;15.53;48.03;95910.06;4998649;28;20242;-81
2023/07/07 03:33:57;;;;;;;3.55;2.80;;;;;;;15.54;47.86;95907.28;4982114;28;20290;-81
2023/07/07 03:36:25;;;;;;;3.65;2.60;;;;;;;15.54;48.05;95909.06;4982613;28;20230;-79
2023/07/07 03:38:50;;;;;;;4.30;2.83;;;;;;;15.40;48.72;95915.84;4998278;28;20241;-80
2023/07/07 03:41:21;;;;;;;4.97;3.17;;;;;;;15.51;48.43;95912.03;4998251;28;20195;-82
2023/07/07 03:43:46;;;;;;;4.30;2.65;;;;;;;15.51;48.78;95912.84;4998669;28;20179;-80
2023/07/07 03:46:16;;;;;;;3.00;2.70;;;;;;;15.53;48.68;95912.69;4982276;28;20207;-81
2023/07/07 03:48:42;;;;;;;4.15;2.55;;;;;;;15.52;48.46;95914.47;4996930;28;20226;-79
2023/07/07 03:51:08;;;;;;;4.15;2.92;;;;;;;15.66;48.09;95923.47;4980386;28;20252;-82
2023/07/07 03:53:34;;;;;;;4.47;3.00;;;;;;;15.82;47.84;95915.56;4998322;28;20194;-82
2023/07/07 03:55:59;;;;;;;4.82;3.00;;;;;;;15.83;48.17;95916.38;4998386;28;20203;-80
2023/07/07 03:58:26;;;;;;;4.00;3.10;;;;;;;16.57;47.04;95920.16;4996201;28;20207;-81
2023/07/07 04:00:52;;;;;;;4.57;3.33;;;;;;;17.90;44.46;95916.91;4982507;28;20225;-83
2023/07/07 04:03:18;;;;;;;5.05;2.90;;;;;;;18.83;41.86;95922.16;4982511;28;20680;-83
2023/07/07 04:05:49;;;;;;;5.53;2.97;;;;;;;19.95;39.91;95929.16;4997267;28;20222;-80
2023/07/07 04:08:21;;;;;;;5.30;2.67;;;;;;;20.75;38.26;95924.94;4996515;28;20202;-81
2023/07/07 04:10:58;;;;;;;3.63;2.67;;;;;;;21.27;36.84;95921.50;4997092;28;20803;-81
2023/07/07 04:13:23;;;;;;;4.75;2.88;;;;;;;21.88;35.63;95926.47;4981000;28;20205;-81
2023/07/07 04:16:05;;;;;;;3.83;3.17;;;;;;;22.87;33.76;95931.28;4985692;28;20270;-83
2023/07/07 04:18:31;;;;;;;3.95;2.88;;;;;;;22.97;33.81;95933.47;5010067;28;20642;-81
2023/07/07 04:21:01;;;;;;;5.60;3.50;;;;;;;23.22;33.36;95932.63;4978956;28;20226;-79
2023/07/07 04:23:27;;;;;;;3.28;2.83;;;;;;;23.52;33.31;95928.28;4993957;28;20211;-81
2023/07/07 04:25:52;;;;;;;3.15;2.75;;;;;;;24.18;31.92;95932.88;4985948;28;20557;-82
2023/07/07 04:28:17;;;;;;;4.65;3.17;;;;;;;24.94;30.53;95930.63;4981260;28;20199;-81
2023/07/07 04:30:44;;;;;;;3.25;2.78;;;;;;;25.22;30.00;95925.50;5005254;28;20563;-80
2023/07/07 04:33:09;;;;;;;4.80;2.95;;;;;;;25.37;28.99;95923.22;4990099;28;20187;-80
2023/07/07 04:35:35;;;;;;;3.72;2.78;;;;;;;26.10;28.79;95935.16;4994569;28;20201;-81
2023/07/07 04:38:01;;;;;;;3.60;3.28;;;;;;;26.19;27.90;95930.28;4979988;28;20720;-81
2023/07/07 04:40:29;;;;;;;4.47;3.13;;;;;;;27.18;26.72;95930.78;5011211;28;20203;-77
2023/07/07 04:42:57;;;;;;;5.95;2.90;;;;;;;27.69;26.09;95934.25;4978822;28;20186;-82
2023/07/07 04:45:22;;;;;;;4.93;2.70;;;;;;;27.69;26.40;95939.56;4980864;28;20202;-81
2023/07/07 04:47:47;;;;;;;4.30;3.15;;;;;;;28.65;24.79;95939.16;4996374;28;20210;-81
2023/07/07 04:50:13;;;;;;;3.47;2.90;;;;;;;29.17;24.90;95946.63;5011065;28;20673;-82
2023/07/07 04:52:39;;;;;;;6.03;3.10;;;;;;;29.33;24.78;95938.47;4982658;28;20619;-82
2023/07/07 04:55:05;;;;;;;4.93;3.20;;;;;;;28.94;25.36;95948.56;4997172;28;20289;-81
2023/07/07 04:57:30;;;;;;;3.72;2.95;;;;;;;29.59;24.63;95944.81;4991148;28;20207;-81
2023/07/07 04:59:55;;;;;;;6.30;2.92;;;;;;;29.17;24.46;95946.63;4996588;28;20187;-81
2023/07/07 05:02:22;;;;;;;4.20;2.80;;;;;;;30.05;24.47;95942.41;4992538;28;20187;-83
2023/07/07 05:04:48;;;;;;;5.18;3.35;;;;;;;30.05;23.48;95947.75;4993382;28;20187;-82
2023/07/07 05:07:14;;;;;;;3.67;2.95;;;;;;;29.72;23.21;95950.78;4994018;28;20183;-81
2023/07/07 05:09:39;;;;;;;4.13;2.92;;;;;;;29.59;23.24;95942.13;4978403;28;20215;-78
2023/07/07 05:12:05;;;;;;;3.80;3.30;;;;;;;30.21;23.38;95948.63;4998571;28;20695;-80
2023/07/07 05:14:30;;;;;;;3.30;2.80;;;;;;;30.59;23.12;95950.13;5005630;28;20221;-81
2023/07/07 05:16:56;;;;;;;3.92;3.22;;;;;;;30.96;22.28;95946.47;4997889;28;20207;-81
2023/07/07 05:19:21;;;;;;;8.38;3.17;;;;;;;30.46;23.41;95947.94;4995218;28;20163;-81
2023/07/07 05:21:47;;;;;;;4.25;3.10;;;;;;;31.82;21.93;95951.03;4993530;28;20206;-81
2023/07/07 05:24:12;;;;;;;5.28;3.20;;;;;;;30.39;22.30;95950.03;4994968;28;20210;-82
2023/07/07 05:26:37;;;;;;;3.33;3.03;;;;;;;30.98;22.27;95949.69;4993514;28;20237;-84
2023/07/07 05:29:04;;;;;;;3.97;2.70;;;;;;;32.68;19.67;95950.69;4987995;28;20211;-81
2023/07/07 05:31:30;;;;;;;4.78;3.00;;;;;;;31.94;21.10;95956.09;4986781;28;20175;-81
2023/07/07 05:33:55;;;;;;;5.43;2.90;;;;;;;31.27;20.75;95949.97;4976394;28;20252;-78
2023/07/07 05:36:20;;;;;;;4.45;3.35;;;;;;;31.99;20.04;95953.41;4994302;28;20350;-79
2023/07/07 05:38:46;;;;;;;4.75;3.00;;;;;;;33.14;19.49;95961.22;5014053;28;20186;-78
2023/07/07 05:41:11;;;;;;;6.28;3.88;;;;;;;33.42;19.36;95959.66;4993604;28;20704;-79
2023/07/07 05:43:36;;;;;;;3.50;3.13;;;;;;;33.40;19.56;95958.34;4979495;28;20687;-78
2023/07/07 05:46:13;;;;;;;4.20;3.47;;;;;;;32.14;20.64;95953.34;4979230;28;20210;-77
2023/07/07 05:48:38;;;;;;;13.80;3.65;;;;;;;33.25;20.05;95959.25;4995448;28;20229;-77
2023/07/07 05:51:06;;;;;;;11.95;4.32;;;;;;;32.51;20.73;95954.81;4995150;28;20669;-79
2023/07/07 05:53:31;;;;;;;9.00;4.15;;;;;;;31.85;21.48;95955.84;4977434;28;20563;-83
2023/07/07 05:56:03;;;;;;;15.38;4.30;;;;;;;34.13;18.90;95962.75;4994432;28;20214;-83
2023/07/07 05:58:29;;;;;;;6.18;3.28;;;;;;;32.60;19.70;95963.91;4990421;28;20183;-82
2023/07/07 06:00:54;;;;;;;4.75;3.45;;;;;;;33.37;18.93;95965.06;4979208;28;20656;-82
2023/07/07 06:03:20;;;;;;;5.20;3.83;;;;;;;32.54;20.39;95960.47;4976234;28;20187;-82
2023/07/07 06:05:45;;;;;;;5.28;3.60;;;;;;;32.14;20.87;95967.56;4977051;28;20684;-82
2023/07/07 06:08:10;;;;;;;4.25;3.35;;;;;;;33.55;19.64;95965.47;4994230;28;20187;-82
2023/07/07 06:10:36;;;;;;;11.25;4.43;;;;;;;33.19;20.52;95965.72;4978340;28;20259;-82
2023/07/07 06:13:02;;;;;;;11.38;3.80;;;;;;;32.37;20.90;95965.38;5007764;28;20694;-82
2023/07/07 06:15:27;;;;;;;6.45;3.70;;;;;;;33.61;19.88;95975.13;4977731;28;20207;-82
2023/07/07 06:17:53;;;;;;;6.05;3.53;;;;;;;35.07;18.15;95971.00;4987996;28;20254;-82
2023/07/07 06:20:18;;;;;;;11.32;4.30;;;;;;;34.47;18.54;95968.03;4991554;28;20595;-82
2023/07/07 06:22:43;;;;;;;13.77;4.10;;;;;;;33.46;19.85;95967.97;4982697;28;20194;-83
2023/07/07 06:25:10;;;;;;;7.85;3.92;;;;;;;33.95;19.78;95973.19;4979348;28;20286;-82
2023/07/07 06:27:35;;;;;;;6.38;3.20;;;;;;;34.77;18.59;95980.31;4991855;28;20676;-82
2023/07/07 06:30:00;;;;;;;10.55;3.40;;;;;;;34.16;19.30;95983.75;4976784;28;20171;-82
2023/07/07 06:32:26;;;;;;;5.90;3.67;;;;;;;33.76;19.48;95977.66;4999080;28;20201;-82
2023/07/07 06:34:51;;;;;;;8.77;3.92;;;;;;;33.97;19.12;95986.38;4986248;28;20762;-83
2023/07/07 06:37:17;;;;;;;4.70;4.05;;;;;;;33.39;19.77;95989.81;5014588;28;20191;-82
2023/07/07 06:39:42;;;;;;;3.63;3.33;;;;;;;33.38;20.64;95992.78;4994431;28;20186;-81
2023/07/07 06:42:08;;;;;;;4.57;3.78;;;;;;;33.60;19.75;95992.34;4976238;28;20231;-82
2023/07/07 06:44:33;;;;;;;5.63;3.80;;;;;;;33.34;20.44;95995.22;4981516;28;20187;-82
2023/07/07 06:46:59;;;;;;;5.65;3.90;;;;;;;33.37;20.08;95994.69;4989050;28;20205;-82
2023/07/07 06:49:24;;;;;;;6.68;3.85;;;;;;;32.36;21.31;95996.03;4983532;28;20210;-82
2023/07/07 06:51:50;;;;;;;4.03;3.58;;;;;;;32.30;21.11;95995.25;4983674;28;20178;-81
2023/07/07 06:54:15;;;;;;;7.05;4.47;;;;;;;34.01;20.13;96006.25;4993552;28;20296;-82
2023/07/07 06:56:40;;;;;;;5.05;3.88;;;;;;;33.71;20.24;96004.63;4978070;28;20294;-82
2023/07/07 06:59:06;;;;;;;4.43;3.38;;;;;;;32.63;21.53;96003.72;4973759;28;20360;-83
2023/07/07 07:01:32;;;;;;;3.95;3.42;;;;;;;33.18;20.99;96010.69;4981144;28;20661;-83
2023/07/07 07:04:00;;;;;;;5.10;3.92;;;;;;;33.34;20.27;96007.88;4999213;28;20202;-83
2023/07/07 07:06:26;;;;;;;4.40;4.00;;;;;;;31.77;21.82;96004.75;4998555;28;20253;-81
2023/07/07 07:08:52;;;;;;;6.47;4.03;;;;;;;33.01;20.53;96012.13;4999925;28;20203;-82
2023/07/07 07:11:17;;;;;;;6.57;3.92;;;;;;;32.94;20.46;96009.75;4983663;28;20274;-83
2023/07/07 07:13:43;;;;;;;8.82;3.92;;;;;;;31.97;21.73;96003.91;4982250;28;20202;-82
2023/07/07 07:16:08;;;;;;;4.40;4.00;;;;;;;33.20;20.77;96015.78;4994480;28;20209;-82
2023/07/07 07:18:33;;;;;;;5.22;4.20;;;;;;;33.07;20.51;96011.84;4983789;28;20172;-83
2023/07/07 07:20:59;;;;;;;4.70;3.90;;;;;;;33.42;20.57;96016.19;4995902;28;20698;-82
2023/07/07 07:23:24;;;;;;;5.88;4.53;;;;;;;33.03;21.45;96021.53;4995451;28;20182;-83
2023/07/07 07:25:49;;;;;;;4.07;3.67;;;;;;;33.86;19.83;96020.66;4996496;28;20327;-88
2023/07/07 07:28:15;;;;;;;6.88;4.65;;;;;;;32.62;21.62;96010.97;4982808;28;20204;-80
2023/07/07 07:30:40;;;;;;;4.72;4.18;;;;;;;34.06;19.75;96014.28;5010458;28;20203;-82
2023/07/07 07:33:11;;;;;;;5.40;4.38;;;;;;;33.46;20.66;96011.84;5000514;28;20262;-83
2023/07/07 07:35:36;;;;;;;5.10;4.40;;;;;;;34.50;19.75;96003.31;4991942;28;20207;-83
2023/07/07 07:38:03;;;;;;;6.57;4.68;;;;;;;33.71;20.54;96010.81;4990582;28;20266;-89
2023/07/07 07:40:35;;;;;;;6.03;4.68;;;;;;;33.69;20.72;96012.19;4991555;28;20731;-90
2023/07/07 07:49:33;;;;;;;5.60;5.00;;;;;;;31.87;22.92;96004.72;5001805;28;20718;-89
2023/07/07 07:51:59;;;;;;;7.07;4.40;;;;;;;31.44;23.29;96000.69;4987550;28;20198;-90
2023/07/07 07:54:24;;;;;;;6.53;4.90;;;;;;;32.60;22.10;96005.06;4983358;28;20653;-83
2023/07/07 07:56:50;;;;;;;4.53;4.13;;;;;;;32.13;22.38;96014.34;4982928;28;20332;-88
2023/07/07 07:59:16;;;;;;;7.65;4.95;;;;;;;32.59;21.96;96011.50;4968260;28;20252;-90
2023/07/07 08:29:59;;;;;;;5.30;4.78;;;;;;;31.15;24.64;96014.59;5250888;23;20243;-90
2023/07/07 08:32:24;;;;;;;7.00;5.22;;;;;;;29.70;26.65;96001.91;4999266;28;20178;-89
2023/07/07 08:34:54;;;;;;;7.15;5.45;;;;;;;29.93;26.50;96003.38;4992535;28;20245;-90
2023/07/07 08:37:20;;;;;;;5.25;4.70;;;;;;;29.82;26.30;96007.06;4977000;28;20183;-83
2023/07/07 08:39:46;;;;;;;6.07;5.32;;;;;;;30.30;25.22;96013.22;4993780;28;20183;-86
2023/07/07 08:42:47;;;;;;;6.78;5.35;;;;;;;30.17;25.76;96011.84;4977579;28;20192;-84
2023/07/07 08:45:19;;;;;;;7.32;4.97;;;;;;;29.64;26.78;96002.91;4940335;29;20768;-85
2023/07/07 08:47:59;;;;;;;5.90;5.30;;;;;;;29.46;27.71;96008.63;4941220;29;20225;-85
2023/07/07 08:50:41;;;;;;;6.75;5.22;;;;;;;29.79;26.86;96007.56;4943199;29;20168;-85
2023/07/07 08:53:27;;;;;;;6.47;5.05;;;;;;;29.70;27.28;96011.81;4956039;29;20495;-85
2023/07/07 08:55:58;;;;;;;9.18;6.05;;;;;;;29.61;26.70;96014.13;4941081;29;20272;-84
2023/07/07 08:58:31;;;;;;;10.15;5.75;;;;;;;29.41;26.79;96009.38;4949864;29;20272;-85
2023/07/07 09:01:10;;;;;;;9.20;5.63;;;;;;;29.16;26.11;96009.19;4960081;28;20281;-85
2023/07/07 09:03:52;;;;;;;6.43;5.07;;;;;;;29.46;26.74;96004.09;4927314;28;20208;-85
2023/07/07 09:06:40;;;;;;;6.22;5.60;;;;;;;29.57;25.92;96013.03;4925707;29;20227;-86
2023/07/07 09:09:12;;;;;;;6.45;5.53;;;;;;;29.53;26.57;96011.94;4960312;28;20220;-85
2023/07/07 09:11:53;;;;;;;9.10;5.57;;;;;;;29.30;26.01;96010.38;4946770;29;20314;-84
2023/07/07 09:14:19;;;;;;;8.00;6.35;;;;;;;29.30;26.38;96007.69;4924711;29;20196;-85
2023/07/07 09:16:46;;;;;;;6.82;5.80;;;;;;;29.48;25.61;96009.19;4932795;29;20216;-85
2023/07/07 09:19:18;;;;;;;7.38;6.13;;;;;;;29.00;27.39;96000.22;4943685;28;20194;-84
2023/07/07 09:22:02;;;;;;;6.35;5.35;;;;;;;29.10;26.41;95996.81;4967105;28;20242;-85
2023/07/07 09:24:43;;;;;;;6.80;5.93;;;;;;;29.05;25.79;95992.22;4975236;28;20184;-86
2023/07/07 09:27:12;;;;;;;11.02;6.70;;;;;;;29.32;26.44;95997.53;4961160;28;20214;-85
2023/07/07 09:29:38;;;;;;;10.77;6.00;;;;;;;29.55;25.57;95988.41;4977316;28;20756;-85
2023/07/07 09:32:04;;;;;;;8.93;6.22;;;;;;;29.93;25.48;95992.66;4959632;28;20215;-84
2023/07/07 09:34:30;;;;;;;7.55;6.40;;;;;;;29.57;24.46;95991.63;4991221;28;20203;-84
2023/07/07 09:37:20;;;;;;;7.68;5.35;;;;;;;29.64;25.07;95996.75;4979723;28;20204;-84
2023/07/07 09:40:00;;;;;;;9.27;6.22;;;;;;;29.65;25.42;95990.34;4982049;28;20206;-84
2023/07/07 09:42:46;;;;;;;7.05;6.35;;;;;;;30.00;23.55;95987.09;4979395;28;20176;-85
2023/07/07 09:45:34;;;;;;;7.63;6.35;;;;;;;29.93;24.80;95992.66;4978875;28;20817;-85
2023/07/07 09:48:27;;;;;;;8.57;6.40;;;;;;;29.78;24.15;95995.25;4996104;28;20213;-86
2023/07/07 09:51:00;;;;;;;7.97;6.72;;;;;;;29.81;24.38;95998.22;4956220;28;20195;-85
2023/07/07 09:53:30;;;;;;;8.38;6.25;;;;;;;29.73;23.76;95990.66;4996054;28;20198;-85
2023/07/07 09:55:56;;;;;;;16.77;7.55;;;;;;;29.48;23.62;95991.25;4999869;28;20224;-84
2023/07/07 09:58:29;;;;;;;10.20;7.07;;;;;;;30.07;23.73;95999.22;4973828;28;20184;-85
2023/07/07 10:00:57;;;;;;;9.07;7.07;;;;;;;30.18;22.53;95990.16;4999068;28;20321;-84
2023/07/07 10:03:29;;;;;;;11.43;6.60;;;;;;;30.07;23.60;95991.16;4998230;28;20203;-84
2023/07/07 10:05:55;;;;;;;7.13;6.13;;;;;;;30.17;24.56;95990.41;4981903;28;20705;-85
2023/07/07 10:08:21;;;;;;;10.70;6.63;;;;;;;29.59;23.90;95981.47;4999629;28;20223;-85
2023/07/07 10:10:52;;;;;;;8.32;6.60;;;;;;;29.65;24.61;95979.63;4983136;28;20610;-84
2023/07/07 10:13:18;;;;;;;8.85;6.53;;;;;;;30.12;23.73;95980.47;4997899;28;20742;-86
2023/07/07 10:15:50;;;;;;;8.05;7.25;;;;;;;29.88;23.77;95977.38;4994491;28;20290;-85
2023/07/07 10:18:21;;;;;;;10.13;7.60;;;;;;;29.39;24.26;95975.94;4964683;28;20247;-78
2023/07/07 10:20:46;;;;;;;8.95;6.75;;;;;;;29.52;26.32;95981.69;4997739;28;20188;-82
2023/07/07 10:23:13;;;;;;;11.30;6.88;;;;;;;30.06;25.23;95981.50;4972496;28;20202;-81
2023/07/07 10:25:40;;;;;;;9.35;6.82;;;;;;;30.42;24.21;95984.38;4989765;28;20272;-82
2023/07/07 10:28:09;;;;;;;8.40;7.13;;;;;;;30.61;24.24;95985.50;4962054;28;20566;-82
2023/07/07 10:30:36;;;;;;;8.85;7.45;;;;;;;30.62;23.92;95983.63;4991961;28;20661;-82
2023/07/07 10:33:02;;;;;;;8.68;7.28;;;;;;;31.04;23.55;95996.09;4966533;28;20681;-82
2023/07/07 10:35:31;;;;;;;10.77;8.52;;;;;;;30.94;22.98;95984.28;4958815;28;20527;-82
2023/07/07 10:38:01;;;;;;;9.88;7.60;;;;;;;31.19;22.56;95988.88;4993346;28;20184;-81
2023/07/07 10:40:26;;;;;;;8.60;7.70;;;;;;;30.82;22.43;95996.31;4968993;28;20207;-81
2023/07/07 10:42:55;;;;;;;11.85;8.18;;;;;;;30.70;23.43;95980.47;4969983;28;20200;-79
2023/07/07 10:45:20;;;;;;;9.80;7.18;;;;;;;31.12;22.62;95991.00;4992053;28;20211;-81
2023/07/07 10:47:46;;;;;;;9.05;7.55;;;;;;;30.91;22.93;95986.66;4962569;28;20216;-81
2023/07/07 10:50:13;;;;;;;10.18;7.45;;;;;;;30.54;23.41;95984.94;4975349;28;20823;-81
2023/07/07 10:53:05;;;;;;;9.10;7.85;;;;;;;30.27;23.54;95986.97;4966529;28;20210;-81
2023/07/07 10:55:46;;;;;;;11.77;7.40;;;;;;;30.24;22.74;95977.59;4976114;28;20207;-81
2023/07/07 10:58:36;;;;;;;10.00;7.45;;;;;;;30.48;22.12;95982.50;4992635;28;20194;-81
2023/07/07 11:01:20;;;;;;;10.02;7.70;;;;;;;30.23;22.95;95988.56;4991318;28;20673;-81
2023/07/07 11:04:26;;;;;;;9.88;8.00;;;;;;;29.89;23.37;95986.22;4992143;28;20194;-82
2023/07/07 11:07:04;;;;;;;8.90;7.55;;;;;;;30.83;22.83;95976.47;4993981;28;20211;-81
2023/07/07 11:09:29;;;;;;;8.57;7.55;;;;;;;31.06;21.59;95978.66;4994959;28;20330;-80
2023/07/07 11:12:01;;;;;;;9.80;8.02;;;;;;;30.96;22.74;95984.00;4996966;28;20192;-81
2023/07/07 11:15:05;;;;;;;9.32;8.32;;;;;;;31.05;21.46;95981.59;4979448;28;20186;-83
2023/07/07 11:17:33;;;;;;;12.02;8.13;;;;;;;30.70;22.18;95975.09;4922390;29;20213;-83
2023/07/07 11:20:33;;;;;;;9.02;7.70;;;;;;;30.46;22.70;95975.53;4939549;29;20560;-83
2023/07/07 11:23:11;;;;;;;8.02;7.22;;;;;;;31.00;22.56;95982.38;4956318;28;20193;-84
2023/07/07 11:25:39;;;;;;;8.98;8.07;;;;;;;31.15;20.93;95963.63;4938213;29;20229;-84
2023/07/07 11:28:28;;;;;;;9.60;7.88;;;;;;;31.23;20.85;95970.38;4955971;28;20225;-84
2023/07/07 11:31:22;;;;;;;8.45;7.55;;;;;;;31.57;21.59;95981.38;4949879;29;20224;-83
2023/07/07 11:34:01;;;;;;;12.23;8.90;;;;;;;31.19;21.60;95972.78;4924922;29;20203;-84
2023/07/07 11:36:48;;;;;;;10.23;8.20;;;;;;;31.29;21.31;95964.75;4951710;29;20233;-85
2023/07/07 11:39:44;;;;;;;11.38;8.10;;;;;;;31.79;20.39;95965.78;4957805;29;20226;-84
2023/07/07 11:42:34;;;;;;;9.15;8.13;;;;;;;32.06;19.41;95961.97;4931244;29;20240;-84
2023/07/07 11:45:08;;;;;;;11.68;8.20;;;;;;;32.16;19.53;95961.97;4955690;29;20651;-84
2023/07/07 11:47:46;;;;;;;11.63;8.02;;;;;;;30.85;20.76;95960.94;4949296;29;20208;-82
2023/07/07 11:50:20;;;;;;;11.77;8.00;;;;;;;30.85;19.64;95951.00;4938010;29;20197;-85
2023/07/07 11:53:13;;;;;;;12.00;8.95;;;;;;;30.92;19.74;95956.94;4954949;28;20188;-83
2023/07/07 11:55:52;;;;;;;9.43;8.25;;;;;;;30.86;19.94;95946.47;4995599;28;20188;-84
2023/07/07 11:58:27;;;;;;;11.57;8.57;;;;;;;31.21;20.03;95951.88;4997181;28;20594;-82
2023/07/07 12:00:58;;;;;;;10.32;8.82;;;;;;;31.80;18.36;95940.53;4997591;28;20204;-84
2023/07/07 12:03:41;;;;;;;10.38;7.47;;;;;;;31.58;19.54;95938.16;4978920;28;20275;-84
2023/07/07 12:06:35;;;;;;;10.65;8.68;;;;;;;31.58;19.54;95940.03;4955795;28;20766;-85
2023/07/07 12:09:12;;;;;;;10.55;8.80;;;;;;;31.80;19.78;95942.44;4979775;28;20310;-84
2023/07/07 12:11:58;;;;;;;10.63;9.30;;;;;;;32.27;18.66;95938.53;4971537;28;20210;-83
2023/07/07 12:14:44;;;;;;;10.10;8.45;;;;;;;31.76;16.90;95939.50;4978737;28;20573;-83
2023/07/07 12:17:18;;;;;;;11.25;9.35;;;;;;;31.11;17.56;95933.06;4994916;28;20188;-84
2023/07/07 12:19:47;;;;;;;12.77;9.05;;;;;;;31.28;18.09;95932.84;4996591;28;20263;-84
2023/07/07 12:22:16;;;;;;;9.18;8.07;;;;;;;31.32;16.89;95938.47;4996540;28;20196;-83